sensor_id;sensor_type;location;lat;lon;timestamp;P1;durP1;ratioP1;P2;durP2;ratioP2
22107;SDS011;11220;48.812;9.128;2022-12-18T00:00:56;5.78;;;3.53;;
22107;SDS011;11220;48.812;9.128;2022-12-18T00:03:22;5.82;;;3.75;;
22107;SDS011;11220;48.812;9.128;2022-12-18T00:05:50;5.20;;;3.78;;
22107;SDS011;11220;48.812;9.128;2022-12-18T00:08:17;6.32;;;4.03;;
22107;SDS011;11220;48.812;9.128;2022-12-18T00:10:43;6.95;;;4.30;;
22107;SDS011;11220;48.812;9.128;2022-12-18T00:13:10;5.65;;;3.75;;
22107;SDS011;11220;48.812;9.128;2022-12-18T00:15:36;5.55;;;3.60;;
22107;SDS011;11220;48.812;9.128;2022-12-18T00:18:03;5.60;;;3.70;;
22107;SDS011;11220;48.812;9.128;2022-12-18T00:20:28;5.85;;;3.72;;
22107;SDS011;11220;48.812;9.128;2022-12-18T00:22:54;5.00;;;3.63;;
22107;SDS011;11220;48.812;9.128;2022-12-18T00:25:20;5.63;;;4.00;;
22107;SDS011;11220;48.812;9.128;2022-12-18T00:27:46;6.50;;;4.15;;
22107;SDS011;11220;48.812;9.128;2022-12-18T00:30:12;4.90;;;3.20;;
22107;SDS011;11220;48.812;9.128;2022-12-18T00:32:38;5.68;;;3.72;;
22107;SDS011;11220;48.812;9.128;2022-12-18T00:35:04;5.13;;;3.60;;
22107;SDS011;11220;48.812;9.128;2022-12-18T00:37:32;5.47;;;3.40;;
22107;SDS011;11220;48.812;9.128;2022-12-18T00:39:58;5.68;;;4.05;;
22107;SDS011;11220;48.812;9.128;2022-12-18T00:42:24;5.60;;;3.97;;
22107;SDS011;11220;48.812;9.128;2022-12-18T00:45:08;6.38;;;4.07;;
22107;SDS011;11220;48.812;9.128;2022-12-18T00:47:34;5.05;;;3.60;;
22107;SDS011;11220;48.812;9.128;2022-12-18T00:49:59;5.53;;;3.75;;
22107;SDS011;11220;48.812;9.128;2022-12-18T00:52:25;5.50;;;3.65;;
22107;SDS011;11220;48.812;9.128;2022-12-18T00:54:50;5.60;;;4.05;;
22107;SDS011;11220;48.812;9.128;2022-12-18T00:57:16;5.20;;;3.45;;
22107;SDS011;11220;48.812;9.128;2022-12-18T00:59:41;5.40;;;3.97;;
22107;SDS011;11220;48.812;9.128;2022-12-18T01:02:07;6.53;;;3.95;;
22107;SDS011;11220;48.812;9.128;2022-12-18T01:04:32;5.53;;;3.90;;
22107;SDS011;11220;48.812;9.128;2022-12-18T01:06:58;4.82;;;3.55;;
22107;SDS011;11220;48.812;9.128;2022-12-18T01:09:24;5.70;;;3.35;;
22107;SDS011;11220;48.812;9.128;2022-12-18T01:11:49;5.97;;;3.83;;
22107;SDS011;11220;48.812;9.128;2022-12-18T01:14:15;5.07;;;3.60;;
22107;SDS011;11220;48.812;9.128;2022-12-18T01:16:40;6.97;;;4.03;;
22107;SDS011;11220;48.812;9.128;2022-12-18T01:19:06;4.78;;;3.60;;
22107;SDS011;11220;48.812;9.128;2022-12-18T01:21:35;4.93;;;3.55;;
22107;SDS011;11220;48.812;9.128;2022-12-18T01:24:00;5.85;;;4.00;;
22107;SDS011;11220;48.812;9.128;2022-12-18T01:26:26;4.97;;;3.42;;
22107;SDS011;11220;48.812;9.128;2022-12-18T01:28:54;6.55;;;3.70;;
22107;SDS011;11220;48.812;9.128;2022-12-18T01:31:22;5.25;;;3.47;;
22107;SDS011;11220;48.812;9.128;2022-12-18T01:33:50;7.28;;;4.15;;
22107;SDS011;11220;48.812;9.128;2022-12-18T01:38:43;5.85;;;3.65;;
22107;SDS011;11220;48.812;9.128;2022-12-18T01:41:09;5.53;;;3.30;;
22107;SDS011;11220;48.812;9.128;2022-12-18T01:43:48;5.40;;;3.63;;
22107;SDS011;11220;48.812;9.128;2022-12-18T01:46:24;5.82;;;3.47;;
22107;SDS011;11220;48.812;9.128;2022-12-18T01:48:52;6.13;;;3.53;;
22107;SDS011;11220;48.812;9.128;2022-12-18T01:51:21;5.50;;;3.67;;
22107;SDS011;11220;48.812;9.128;2022-12-18T01:53:47;5.07;;;3.55;;
22107;SDS011;11220;48.812;9.128;2022-12-18T01:56:18;6.95;;;3.60;;
22107;SDS011;11220;48.812;9.128;2022-12-18T01:59:04;5.90;;;3.35;;
22107;SDS011;11220;48.812;9.128;2022-12-18T02:01:34;6.60;;;4.03;;
22107;SDS011;11220;48.812;9.128;2022-12-18T02:06:50;6.60;;;3.53;;
22107;SDS011;11220;48.812;9.128;2022-12-18T02:09:43;6.40;;;3.97;;
22107;SDS011;11220;48.812;9.128;2022-12-18T02:12:18;6.80;;;3.55;;
22107;SDS011;11220;48.812;9.128;2022-12-18T02:17:50;5.20;;;3.55;;
22107;SDS011;11220;48.812;9.128;2022-12-18T02:20:24;6.05;;;4.03;;
22107;SDS011;11220;48.812;9.128;2022-12-18T02:23:06;5.85;;;3.67;;
22107;SDS011;11220;48.812;9.128;2022-12-18T02:28:36;7.10;;;4.07;;
22107;SDS011;11220;48.812;9.128;2022-12-18T02:31:14;5.05;;;3.38;;
22107;SDS011;11220;48.812;9.128;2022-12-18T02:33:46;6.85;;;4.25;;
22107;SDS011;11220;48.812;9.128;2022-12-18T02:36:14;6.10;;;3.67;;
22107;SDS011;11220;48.812;9.128;2022-12-18T02:38:43;5.37;;;3.83;;
22107;SDS011;11220;48.812;9.128;2022-12-18T02:41:10;6.22;;;3.88;;
22107;SDS011;11220;48.812;9.128;2022-12-18T02:43:37;6.15;;;3.72;;
22107;SDS011;11220;48.812;9.128;2022-12-18T02:48:50;5.68;;;3.63;;
22107;SDS011;11220;48.812;9.128;2022-12-18T02:51:28;7.22;;;3.83;;
22107;SDS011;11220;48.812;9.128;2022-12-18T02:53:58;6.50;;;3.80;;
22107;SDS011;11220;48.812;9.128;2022-12-18T02:56:38;6.88;;;4.28;;
22107;SDS011;11220;48.812;9.128;2022-12-18T02:59:10;5.45;;;3.80;;
22107;SDS011;11220;48.812;9.128;2022-12-18T03:07:00;6.03;;;3.90;;
22107;SDS011;11220;48.812;9.128;2022-12-18T03:09:32;5.72;;;3.97;;
22107;SDS011;11220;48.812;9.128;2022-12-18T03:12:04;5.32;;;3.70;;
22107;SDS011;11220;48.812;9.128;2022-12-18T03:14:52;5.47;;;3.92;;
22107;SDS011;11220;48.812;9.128;2022-12-18T03:17:32;5.45;;;3.72;;
22107;SDS011;11220;48.812;9.128;2022-12-18T03:20:00;5.88;;;3.80;;
22107;SDS011;11220;48.812;9.128;2022-12-18T03:22:32;5.82;;;3.53;;
22107;SDS011;11220;48.812;9.128;2022-12-18T03:25:00;6.90;;;3.83;;
22107;SDS011;11220;48.812;9.128;2022-12-18T03:27:30;4.55;;;3.17;;
22107;SDS011;11220;48.812;9.128;2022-12-18T03:30:01;5.47;;;3.65;;
22107;SDS011;11220;48.812;9.128;2022-12-18T03:32:33;6.88;;;4.13;;
22107;SDS011;11220;48.812;9.128;2022-12-18T03:35:04;7.05;;;3.83;;
22107;SDS011;11220;48.812;9.128;2022-12-18T03:37:33;7.18;;;4.28;;
22107;SDS011;11220;48.812;9.128;2022-12-18T03:39:58;5.43;;;3.40;;
22107;SDS011;11220;48.812;9.128;2022-12-18T03:45:23;7.38;;;3.92;;
22107;SDS011;11220;48.812;9.128;2022-12-18T03:48:16;7.38;;;4.18;;
22107;SDS011;11220;48.812;9.128;2022-12-18T03:50:56;5.25;;;3.50;;
22107;SDS011;11220;48.812;9.128;2022-12-18T03:53:31;5.70;;;3.42;;
22107;SDS011;11220;48.812;9.128;2022-12-18T03:56:06;5.75;;;3.75;;
22107;SDS011;11220;48.812;9.128;2022-12-18T03:58:34;6.47;;;4.00;;
22107;SDS011;11220;48.812;9.128;2022-12-18T04:01:03;6.22;;;3.60;;
22107;SDS011;11220;48.812;9.128;2022-12-18T04:03:32;5.32;;;3.38;;
22107;SDS011;11220;48.812;9.128;2022-12-18T04:05:59;6.95;;;4.03;;
22107;SDS011;11220;48.812;9.128;2022-12-18T04:08:26;6.07;;;3.70;;
22107;SDS011;11220;48.812;9.128;2022-12-18T04:10:52;6.20;;;3.40;;
22107;SDS011;11220;48.812;9.128;2022-12-18T04:13:21;5.22;;;3.58;;
22107;SDS011;11220;48.812;9.128;2022-12-18T04:15:53;5.10;;;3.78;;
22107;SDS011;11220;48.812;9.128;2022-12-18T04:18:18;5.75;;;3.60;;
22107;SDS011;11220;48.812;9.128;2022-12-18T04:20:44;5.13;;;3.08;;
22107;SDS011;11220;48.812;9.128;2022-12-18T04:23:10;5.57;;;3.67;;
22107;SDS011;11220;48.812;9.128;2022-12-18T04:25:35;6.95;;;3.47;;
22107;SDS011;11220;48.812;9.128;2022-12-18T04:28:01;6.18;;;3.70;;
22107;SDS011;11220;48.812;9.128;2022-12-18T04:30:26;5.38;;;3.17;;
22107;SDS011;11220;48.812;9.128;2022-12-18T04:32:52;6.65;;;3.72;;
22107;SDS011;11220;48.812;9.128;2022-12-18T04:35:18;4.38;;;3.42;;
22107;SDS011;11220;48.812;9.128;2022-12-18T04:37:43;5.20;;;3.13;;
22107;SDS011;11220;48.812;9.128;2022-12-18T04:40:09;6.05;;;3.47;;
22107;SDS011;11220;48.812;9.128;2022-12-18T04:42:35;4.70;;;2.97;;
22107;SDS011;11220;48.812;9.128;2022-12-18T04:45:00;4.72;;;3.00;;
22107;SDS011;11220;48.812;9.128;2022-12-18T04:47:26;4.25;;;2.88;;
22107;SDS011;11220;48.812;9.128;2022-12-18T04:49:51;5.13;;;2.90;;
22107;SDS011;11220;48.812;9.128;2022-12-18T04:52:17;4.20;;;2.80;;
22107;SDS011;11220;48.812;9.128;2022-12-18T04:54:42;5.00;;;2.80;;
22107;SDS011;11220;48.812;9.128;2022-12-18T04:57:08;4.53;;;2.90;;
22107;SDS011;11220;48.812;9.128;2022-12-18T04:59:33;4.70;;;2.70;;
22107;SDS011;11220;48.812;9.128;2022-12-18T05:01:59;4.80;;;2.95;;
22107;SDS011;11220;48.812;9.128;2022-12-18T05:04:25;3.63;;;2.30;;
22107;SDS011;11220;48.812;9.128;2022-12-18T05:06:50;4.28;;;2.40;;
22107;SDS011;11220;48.812;9.128;2022-12-18T05:09:16;3.88;;;2.63;;
22107;SDS011;11220;48.812;9.128;2022-12-18T05:11:41;3.78;;;2.67;;
22107;SDS011;11220;48.812;9.128;2022-12-18T05:14:07;4.55;;;2.22;;
22107;SDS011;11220;48.812;9.128;2022-12-18T05:16:32;2.17;;;1.95;;
22107;SDS011;11220;48.812;9.128;2022-12-18T05:18:58;3.13;;;2.03;;
22107;SDS011;11220;48.812;9.128;2022-12-18T05:21:24;2.65;;;2.08;;
22107;SDS011;11220;48.812;9.128;2022-12-18T05:23:49;3.35;;;2.17;;
22107;SDS011;11220;48.812;9.128;2022-12-18T05:26:16;3.17;;;1.95;;
22107;SDS011;11220;48.812;9.128;2022-12-18T05:28:43;2.22;;;1.88;;
22107;SDS011;11220;48.812;9.128;2022-12-18T05:31:09;3.17;;;1.95;;
22107;SDS011;11220;48.812;9.128;2022-12-18T05:33:34;3.45;;;2.10;;
22107;SDS011;11220;48.812;9.128;2022-12-18T05:36:01;2.90;;;2.00;;
22107;SDS011;11220;48.812;9.128;2022-12-18T05:38:28;3.08;;;2.00;;
22107;SDS011;11220;48.812;9.128;2022-12-18T05:40:56;2.85;;;2.28;;
22107;SDS011;11220;48.812;9.128;2022-12-18T05:43:24;2.60;;;2.00;;
22107;SDS011;11220;48.812;9.128;2022-12-18T05:45:51;3.20;;;2.20;;
22107;SDS011;11220;48.812;9.128;2022-12-18T05:48:18;4.30;;;2.42;;
22107;SDS011;11220;48.812;9.128;2022-12-18T05:50:44;3.53;;;1.95;;
22107;SDS011;11220;48.812;9.128;2022-12-18T05:53:11;3.78;;;2.22;;
22107;SDS011;11220;48.812;9.128;2022-12-18T05:55:39;3.63;;;2.47;;
22107;SDS011;11220;48.812;9.128;2022-12-18T05:58:06;3.45;;;2.40;;
22107;SDS011;11220;48.812;9.128;2022-12-18T06:00:33;3.20;;;1.98;;
22107;SDS011;11220;48.812;9.128;2022-12-18T06:03:04;3.05;;;2.17;;
22107;SDS011;11220;48.812;9.128;2022-12-18T06:05:34;3.22;;;2.03;;
22107;SDS011;11220;48.812;9.128;2022-12-18T06:08:03;3.35;;;2.00;;
22107;SDS011;11220;48.812;9.128;2022-12-18T06:10:29;2.50;;;1.70;;
22107;SDS011;11220;48.812;9.128;2022-12-18T06:12:55;3.22;;;2.00;;
22107;SDS011;11220;48.812;9.128;2022-12-18T06:15:21;3.38;;;2.03;;
22107;SDS011;11220;48.812;9.128;2022-12-18T06:17:46;2.42;;;1.70;;
22107;SDS011;11220;48.812;9.128;2022-12-18T06:20:12;2.88;;;2.00;;
22107;SDS011;11220;48.812;9.128;2022-12-18T06:22:37;4.07;;;2.22;;
22107;SDS011;11220;48.812;9.128;2022-12-18T06:25:03;2.85;;;2.17;;
22107;SDS011;11220;48.812;9.128;2022-12-18T06:27:29;2.88;;;1.88;;
22107;SDS011;11220;48.812;9.128;2022-12-18T06:29:54;3.38;;;2.00;;
22107;SDS011;11220;48.812;9.128;2022-12-18T06:32:20;3.38;;;1.75;;
22107;SDS011;11220;48.812;9.128;2022-12-18T06:34:48;3.15;;;2.28;;
22107;SDS011;11220;48.812;9.128;2022-12-18T06:37:14;2.83;;;2.00;;
22107;SDS011;11220;48.812;9.128;2022-12-18T06:39:40;3.20;;;1.98;;
22107;SDS011;11220;48.812;9.128;2022-12-18T06:42:05;4.05;;;2.40;;
22107;SDS011;11220;48.812;9.128;2022-12-18T06:44:31;2.85;;;1.88;;
22107;SDS011;11220;48.812;9.128;2022-12-18T06:46:56;2.30;;;1.70;;
22107;SDS011;11220;48.812;9.128;2022-12-18T06:49:22;2.33;;;1.73;;
22107;SDS011;11220;48.812;9.128;2022-12-18T06:51:47;3.20;;;1.73;;
22107;SDS011;11220;48.812;9.128;2022-12-18T06:54:12;3.50;;;2.05;;
22107;SDS011;11220;48.812;9.128;2022-12-18T06:56:38;2.85;;;1.95;;
22107;SDS011;11220;48.812;9.128;2022-12-18T06:59:03;3.22;;;1.67;;
22107;SDS011;11220;48.812;9.128;2022-12-18T07:01:29;2.03;;;1.65;;
22107;SDS011;11220;48.812;9.128;2022-12-18T07:03:55;2.10;;;1.90;;
22107;SDS011;11220;48.812;9.128;2022-12-18T07:06:22;2.00;;;1.65;;
22107;SDS011;11220;48.812;9.128;2022-12-18T07:08:49;2.40;;;2.20;;
22107;SDS011;11220;48.812;9.128;2022-12-18T07:11:15;2.85;;;1.92;;
22107;SDS011;11220;48.812;9.128;2022-12-18T07:13:42;2.28;;;1.58;;
22107;SDS011;11220;48.812;9.128;2022-12-18T07:16:09;2.50;;;1.77;;
22107;SDS011;11220;48.812;9.128;2022-12-18T07:18:36;2.20;;;1.55;;
22107;SDS011;11220;48.812;9.128;2022-12-18T07:21:03;2.65;;;1.98;;
22107;SDS011;11220;48.812;9.128;2022-12-18T07:23:32;2.60;;;1.90;;
22107;SDS011;11220;48.812;9.128;2022-12-18T07:26:07;2.60;;;2.00;;
22107;SDS011;11220;48.812;9.128;2022-12-18T07:28:34;2.53;;;1.75;;
22107;SDS011;11220;48.812;9.128;2022-12-18T07:31:04;2.22;;;1.73;;
22107;SDS011;11220;48.812;9.128;2022-12-18T07:33:31;2.17;;;1.60;;
22107;SDS011;11220;48.812;9.128;2022-12-18T07:35:58;2.25;;;1.83;;
22107;SDS011;11220;48.812;9.128;2022-12-18T07:38:24;2.25;;;1.70;;
22107;SDS011;11220;48.812;9.128;2022-12-18T07:40:50;2.90;;;1.80;;
22107;SDS011;11220;48.812;9.128;2022-12-18T07:43:15;1.88;;;1.65;;
22107;SDS011;11220;48.812;9.128;2022-12-18T07:45:41;2.90;;;1.88;;
22107;SDS011;11220;48.812;9.128;2022-12-18T07:48:07;2.13;;;1.67;;
22107;SDS011;11220;48.812;9.128;2022-12-18T07:50:32;2.65;;;1.95;;
22107;SDS011;11220;48.812;9.128;2022-12-18T07:52:58;3.08;;;1.58;;
22107;SDS011;11220;48.812;9.128;2022-12-18T07:55:28;2.47;;;1.63;;
22107;SDS011;11220;48.812;9.128;2022-12-18T07:57:56;1.73;;;1.42;;
22107;SDS011;11220;48.812;9.128;2022-12-18T08:00:25;2.00;;;1.73;;
22107;SDS011;11220;48.812;9.128;2022-12-18T08:02:50;2.33;;;1.75;;
22107;SDS011;11220;48.812;9.128;2022-12-18T08:05:16;2.63;;;1.85;;
22107;SDS011;11220;48.812;9.128;2022-12-18T08:07:41;2.05;;;1.85;;
22107;SDS011;11220;48.812;9.128;2022-12-18T08:10:07;2.65;;;1.70;;
22107;SDS011;11220;48.812;9.128;2022-12-18T08:12:33;1.48;;;1.30;;
22107;SDS011;11220;48.812;9.128;2022-12-18T08:14:59;1.70;;;1.58;;
22107;SDS011;11220;48.812;9.128;2022-12-18T08:17:24;1.77;;;1.52;;
22107;SDS011;11220;48.812;9.128;2022-12-18T08:19:50;1.60;;;1.48;;
22107;SDS011;11220;48.812;9.128;2022-12-18T08:22:15;2.55;;;2.05;;
22107;SDS011;11220;48.812;9.128;2022-12-18T08:24:41;2.90;;;1.83;;
22107;SDS011;11220;48.812;9.128;2022-12-18T08:27:06;2.22;;;1.55;;
22107;SDS011;11220;48.812;9.128;2022-12-18T08:29:32;2.00;;;1.70;;
22107;SDS011;11220;48.812;9.128;2022-12-18T08:31:58;2.63;;;1.30;;
22107;SDS011;11220;48.812;9.128;2022-12-18T08:34:24;3.17;;;1.95;;
22107;SDS011;11220;48.812;9.128;2022-12-18T08:36:49;2.58;;;1.70;;
22107;SDS011;11220;48.812;9.128;2022-12-18T08:39:15;1.52;;;1.42;;
22107;SDS011;11220;48.812;9.128;2022-12-18T08:41:40;1.92;;;1.38;;
22107;SDS011;11220;48.812;9.128;2022-12-18T08:44:07;1.52;;;1.35;;
22107;SDS011;11220;48.812;9.128;2022-12-18T08:46:51;2.28;;;1.52;;
22107;SDS011;11220;48.812;9.128;2022-12-18T08:49:17;2.25;;;1.67;;
22107;SDS011;11220;48.812;9.128;2022-12-18T08:51:42;2.05;;;1.60;;
22107;SDS011;11220;48.812;9.128;2022-12-18T08:54:09;2.25;;;1.52;;
22107;SDS011;11220;48.812;9.128;2022-12-18T08:56:37;1.52;;;1.27;;
22107;SDS011;11220;48.812;9.128;2022-12-18T08:59:02;2.03;;;1.30;;
22107;SDS011;11220;48.812;9.128;2022-12-18T09:01:29;1.58;;;1.40;;
22107;SDS011;11220;48.812;9.128;2022-12-18T09:03:55;2.05;;;1.67;;
22107;SDS011;11220;48.812;9.128;2022-12-18T09:06:21;1.63;;;1.23;;
22107;SDS011;11220;48.812;9.128;2022-12-18T09:08:47;2.05;;;1.60;;
22107;SDS011;11220;48.812;9.128;2022-12-18T09:11:15;2.05;;;1.40;;
22107;SDS011;11220;48.812;9.128;2022-12-18T09:13:45;1.90;;;1.50;;
22107;SDS011;11220;48.812;9.128;2022-12-18T09:16:11;1.77;;;1.38;;
22107;SDS011;11220;48.812;9.128;2022-12-18T09:18:36;2.17;;;1.70;;
22107;SDS011;11220;48.812;9.128;2022-12-18T09:21:16;2.22;;;1.60;;
22107;SDS011;11220;48.812;9.128;2022-12-18T09:23:43;1.65;;;1.23;;
22107;SDS011;11220;48.812;9.128;2022-12-18T09:26:09;1.58;;;1.38;;
22107;SDS011;11220;48.812;9.128;2022-12-18T09:28:35;1.77;;;1.40;;
22107;SDS011;11220;48.812;9.128;2022-12-18T09:31:03;1.50;;;1.38;;
22107;SDS011;11220;48.812;9.128;2022-12-18T09:33:31;1.58;;;1.17;;
22107;SDS011;11220;48.812;9.128;2022-12-18T09:35:57;2.45;;;1.50;;
22107;SDS011;11220;48.812;9.128;2022-12-18T09:38:22;1.38;;;1.25;;
22107;SDS011;11220;48.812;9.128;2022-12-18T09:40:49;1.35;;;1.25;;
22107;SDS011;11220;48.812;9.128;2022-12-18T09:43:18;2.15;;;1.60;;
22107;SDS011;11220;48.812;9.128;2022-12-18T09:45:51;2.03;;;1.38;;
22107;SDS011;11220;48.812;9.128;2022-12-18T09:48:23;1.48;;;1.30;;
22107;SDS011;11220;48.812;9.128;2022-12-18T09:50:54;2.45;;;1.70;;
22107;SDS011;11220;48.812;9.128;2022-12-18T09:53:26;2.45;;;1.58;;
22107;SDS011;11220;48.812;9.128;2022-12-18T09:55:56;2.15;;;1.45;;
22107;SDS011;11220;48.812;9.128;2022-12-18T09:58:24;2.15;;;1.60;;
22107;SDS011;11220;48.812;9.128;2022-12-18T10:00:52;1.70;;;1.40;;
22107;SDS011;11220;48.812;9.128;2022-12-18T10:03:19;2.20;;;1.63;;
22107;SDS011;11220;48.812;9.128;2022-12-18T10:10:49;2.33;;;1.63;;
22107;SDS011;11220;48.812;9.128;2022-12-18T10:15:47;1.80;;;1.63;;
22107;SDS011;11220;48.812;9.128;2022-12-18T10:21:09;3.30;;;1.83;;
22107;SDS011;11220;48.812;9.128;2022-12-18T10:23:41;3.28;;;2.45;;
22107;SDS011;11220;48.812;9.128;2022-12-18T10:26:27;1.85;;;1.40;;
22107;SDS011;11220;48.812;9.128;2022-12-18T10:28:53;2.72;;;2.00;;
22107;SDS011;11220;48.812;9.128;2022-12-18T10:31:21;2.05;;;1.70;;
22107;SDS011;11220;48.812;9.128;2022-12-18T10:33:48;2.63;;;1.77;;
22107;SDS011;11220;48.812;9.128;2022-12-18T10:36:13;2.00;;;1.60;;
22107;SDS011;11220;48.812;9.128;2022-12-18T10:38:39;3.25;;;1.77;;
22107;SDS011;11220;48.812;9.128;2022-12-18T10:46:46;2.05;;;1.52;;
22107;SDS011;11220;48.812;9.128;2022-12-18T10:49:19;2.05;;;1.65;;
22107;SDS011;11220;48.812;9.128;2022-12-18T10:51:47;2.35;;;1.67;;
22107;SDS011;11220;48.812;9.128;2022-12-18T10:54:17;1.83;;;1.70;;
22107;SDS011;11220;48.812;9.128;2022-12-18T10:56:46;2.05;;;1.60;;
22107;SDS011;11220;48.812;9.128;2022-12-18T10:59:12;3.30;;;1.70;;
22107;SDS011;11220;48.812;9.128;2022-12-18T11:01:50;1.55;;;1.40;;
22107;SDS011;11220;48.812;9.128;2022-12-18T11:04:28;2.17;;;1.48;;
22107;SDS011;11220;48.812;9.128;2022-12-18T11:06:56;2.42;;;1.77;;
22107;SDS011;11220;48.812;9.128;2022-12-18T11:09:28;1.88;;;1.30;;
22107;SDS011;11220;48.812;9.128;2022-12-18T11:11:59;2.47;;;1.55;;
22107;SDS011;11220;48.812;9.128;2022-12-18T11:14:32;1.90;;;1.38;;
22107;SDS011;11220;48.812;9.128;2022-12-18T11:16:59;2.08;;;1.40;;
22107;SDS011;11220;48.812;9.128;2022-12-18T11:21:59;1.90;;;1.38;;
22107;SDS011;11220;48.812;9.128;2022-12-18T11:24:28;2.45;;;1.42;;
22107;SDS011;11220;48.812;9.128;2022-12-18T11:26:55;1.85;;;1.50;;
22107;SDS011;11220;48.812;9.128;2022-12-18T11:29:33;1.90;;;1.73;;
22107;SDS011;11220;48.812;9.128;2022-12-18T11:33:01;2.45;;;1.17;;
22107;SDS011;11220;48.812;9.128;2022-12-18T11:37:49;1.90;;;1.50;;
22107;SDS011;11220;48.812;9.128;2022-12-18T11:40:24;2.50;;;1.50;;
22107;SDS011;11220;48.812;9.128;2022-12-18T11:42:59;1.95;;;1.60;;
22107;SDS011;11220;48.812;9.128;2022-12-18T11:45:53;1.95;;;1.52;;
22107;SDS011;11220;48.812;9.128;2022-12-18T11:48:27;1.60;;;1.30;;
22107;SDS011;11220;48.812;9.128;2022-12-18T11:50:58;2.72;;;1.30;;
22107;SDS011;11220;48.812;9.128;2022-12-18T11:53:26;1.93;;;1.60;;
22107;SDS011;11220;48.812;9.128;2022-12-18T11:58:52;2.28;;;1.15;;
22107;SDS011;11220;48.812;9.128;2022-12-18T12:07:06;6.57;;;3.40;;
22107;SDS011;11220;48.812;9.128;2022-12-18T12:12:44;5.65;;;3.47;;
22107;SDS011;11220;48.812;9.128;2022-12-18T12:20:58;4.90;;;2.38;;
22107;SDS011;11220;48.812;9.128;2022-12-18T12:23:28;2.75;;;2.15;;
22107;SDS011;11220;48.812;9.128;2022-12-18T12:34:12;3.78;;;1.80;;
22107;SDS011;11220;48.812;9.128;2022-12-18T12:39:39;1.65;;;1.33;;
22107;SDS011;11220;48.812;9.128;2022-12-18T12:42:23;1.77;;;1.42;;
22107;SDS011;11220;48.812;9.128;2022-12-18T12:45:13;2.53;;;1.63;;
22107;SDS011;11220;48.812;9.128;2022-12-18T12:47:43;2.20;;;1.50;;
22107;SDS011;11220;48.812;9.128;2022-12-18T12:50:14;2.42;;;1.50;;
22107;SDS011;11220;48.812;9.128;2022-12-18T12:52:47;2.22;;;1.60;;
22107;SDS011;11220;48.812;9.128;2022-12-18T12:55:20;2.00;;;1.30;;
22107;SDS011;11220;48.812;9.128;2022-12-18T12:57:57;2.90;;;1.48;;
22107;SDS011;11220;48.812;9.128;2022-12-18T13:00:44;1.73;;;1.60;;
22107;SDS011;11220;48.812;9.128;2022-12-18T13:09:05;2.05;;;1.50;;
22107;SDS011;11220;48.812;9.128;2022-12-18T13:14:28;1.88;;;1.40;;
22107;SDS011;11220;48.812;9.128;2022-12-18T13:17:22;2.00;;;1.30;;
22107;SDS011;11220;48.812;9.128;2022-12-18T13:19:50;1.90;;;1.38;;
22107;SDS011;11220;48.812;9.128;2022-12-18T13:22:24;1.92;;;1.50;;
22107;SDS011;11220;48.812;9.128;2022-12-18T13:24:55;1.83;;;1.20;;
22107;SDS011;11220;48.812;9.128;2022-12-18T13:35:40;2.08;;;1.30;;
22107;SDS011;11220;48.812;9.128;2022-12-18T13:40:57;2.10;;;1.55;;
22107;SDS011;11220;48.812;9.128;2022-12-18T13:43:27;1.50;;;1.20;;
22107;SDS011;11220;48.812;9.128;2022-12-18T13:45:59;1.77;;;1.20;;
22107;SDS011;11220;48.812;9.128;2022-12-18T13:49:16;1.65;;;1.38;;
22107;SDS011;11220;48.812;9.128;2022-12-18T13:51:50;1.25;;;1.15;;
22107;SDS011;11220;48.812;9.128;2022-12-18T13:54:19;1.88;;;1.40;;
22107;SDS011;11220;48.812;9.128;2022-12-18T13:56:47;1.63;;;1.20;;
22107;SDS011;11220;48.812;9.128;2022-12-18T14:01:42;1.88;;;1.25;;
22107;SDS011;11220;48.812;9.128;2022-12-18T14:04:10;1.67;;;1.23;;
22107;SDS011;11220;48.812;9.128;2022-12-18T14:06:37;1.35;;;1.20;;
22107;SDS011;11220;48.812;9.128;2022-12-18T14:09:03;1.42;;;1.15;;
22107;SDS011;11220;48.812;9.128;2022-12-18T14:11:29;1.75;;;1.30;;
22107;SDS011;11220;48.812;9.128;2022-12-18T14:13:55;1.05;;;0.95;;
22107;SDS011;11220;48.812;9.128;2022-12-18T14:16:21;2.53;;;1.55;;
22107;SDS011;11220;48.812;9.128;2022-12-18T14:18:48;1.08;;;0.90;;
22107;SDS011;11220;48.812;9.128;2022-12-18T14:21:26;2.08;;;1.42;;
22107;SDS011;11220;48.812;9.128;2022-12-18T14:26:42;2.47;;;1.20;;
22107;SDS011;11220;48.812;9.128;2022-12-18T14:32:04;1.73;;;1.27;;
22107;SDS011;11220;48.812;9.128;2022-12-18T14:34:31;2.20;;;1.42;;
22107;SDS011;11220;48.812;9.128;2022-12-18T14:36:56;1.50;;;1.25;;
22107;SDS011;11220;48.812;9.128;2022-12-18T14:39:22;1.60;;;1.27;;
22107;SDS011;11220;48.812;9.128;2022-12-18T14:41:50;1.48;;;1.17;;
22107;SDS011;11220;48.812;9.128;2022-12-18T14:44:16;2.20;;;1.17;;
22107;SDS011;11220;48.812;9.128;2022-12-18T14:46:43;1.65;;;1.30;;
22107;SDS011;11220;48.812;9.128;2022-12-18T14:49:22;1.48;;;1.15;;
22107;SDS011;11220;48.812;9.128;2022-12-18T14:51:49;1.48;;;1.15;;
22107;SDS011;11220;48.812;9.128;2022-12-18T14:57:21;2.15;;;1.40;;
22107;SDS011;11220;48.812;9.128;2022-12-18T14:59:55;2.17;;;1.35;;
22107;SDS011;11220;48.812;9.128;2022-12-18T15:02:34;1.52;;;1.10;;
22107;SDS011;11220;48.812;9.128;2022-12-18T15:05:03;1.92;;;1.20;;
22107;SDS011;11220;48.812;9.128;2022-12-18T15:07:44;2.00;;;1.40;;
22107;SDS011;11220;48.812;9.128;2022-12-18T15:10:16;1.92;;;1.30;;
22107;SDS011;11220;48.812;9.128;2022-12-18T15:12:48;1.88;;;1.52;;
22107;SDS011;11220;48.812;9.128;2022-12-18T15:25:56;1.90;;;1.33;;
22107;SDS011;11220;48.812;9.128;2022-12-18T15:28:27;2.20;;;1.17;;
22107;SDS011;11220;48.812;9.128;2022-12-18T15:31:03;2.70;;;1.58;;
22107;SDS011;11220;48.812;9.128;2022-12-18T15:36:18;2.25;;;1.55;;
22107;SDS011;11220;48.812;9.128;2022-12-18T15:38:48;2.10;;;1.38;;
22107;SDS011;11220;48.812;9.128;2022-12-18T15:41:15;1.45;;;1.20;;
22107;SDS011;11220;48.812;9.128;2022-12-18T15:43:42;1.92;;;1.35;;
22107;SDS011;11220;48.812;9.128;2022-12-18T15:48:42;2.03;;;1.30;;
22107;SDS011;11220;48.812;9.128;2022-12-18T15:51:13;2.17;;;1.50;;
22107;SDS011;11220;48.812;9.128;2022-12-18T15:53:42;1.63;;;1.40;;
22107;SDS011;11220;48.812;9.128;2022-12-18T15:56:11;1.55;;;1.23;;
22107;SDS011;11220;48.812;9.128;2022-12-18T15:58:56;1.90;;;1.50;;
22107;SDS011;11220;48.812;9.128;2022-12-18T16:01:22;3.35;;;1.70;;
22107;SDS011;11220;48.812;9.128;2022-12-18T16:03:50;2.67;;;1.42;;
22107;SDS011;11220;48.812;9.128;2022-12-18T16:06:15;1.95;;;1.30;;
22107;SDS011;11220;48.812;9.128;2022-12-18T16:08:41;1.92;;;1.40;;
22107;SDS011;11220;48.812;9.128;2022-12-18T16:11:10;3.00;;;1.40;;
22107;SDS011;11220;48.812;9.128;2022-12-18T16:14:02;1.88;;;1.60;;
22107;SDS011;11220;48.812;9.128;2022-12-18T16:16:29;2.03;;;1.45;;
22107;SDS011;11220;48.812;9.128;2022-12-18T16:18:54;1.95;;;1.45;;
22107;SDS011;11220;48.812;9.128;2022-12-18T16:21:20;2.17;;;1.58;;
22107;SDS011;11220;48.812;9.128;2022-12-18T16:23:48;1.75;;;1.23;;
22107;SDS011;11220;48.812;9.128;2022-12-18T16:26:13;1.90;;;1.38;;
22107;SDS011;11220;48.812;9.128;2022-12-18T16:28:39;2.40;;;1.13;;
22107;SDS011;11220;48.812;9.128;2022-12-18T16:31:04;2.08;;;1.50;;
22107;SDS011;11220;48.812;9.128;2022-12-18T16:33:30;1.83;;;1.20;;
22107;SDS011;11220;48.812;9.128;2022-12-18T16:35:55;2.15;;;1.60;;
22107;SDS011;11220;48.812;9.128;2022-12-18T16:38:21;1.98;;;1.25;;
22107;SDS011;11220;48.812;9.128;2022-12-18T16:40:46;1.42;;;1.15;;
22107;SDS011;11220;48.812;9.128;2022-12-18T16:43:31;1.85;;;1.50;;
22107;SDS011;11220;48.812;9.128;2022-12-18T16:45:58;2.15;;;1.70;;
22107;SDS011;11220;48.812;9.128;2022-12-18T16:48:24;1.88;;;1.15;;
22107;SDS011;11220;48.812;9.128;2022-12-18T16:50:50;3.00;;;1.50;;
22107;SDS011;11220;48.812;9.128;2022-12-18T16:53:24;1.92;;;1.55;;
22107;SDS011;11220;48.812;9.128;2022-12-18T16:55:53;2.80;;;1.80;;
22107;SDS011;11220;48.812;9.128;2022-12-18T16:58:19;2.55;;;1.55;;